sensor_id;sensor_type;location;lat;lon;timestamp;P1;durP1;ratioP1;P2;durP2;ratioP2
3293;SDS011;1659;51.470;6.770;2023-02-22T00:01:19;85.77;;;31.97;;
3293;SDS011;1659;51.470;6.770;2023-02-22T00:03:59;80.23;;;31.70;;
3293;SDS011;1659;51.470;6.770;2023-02-22T00:06:26;83.47;;;30.50;;
3293;SDS011;1659;51.470;6.770;2023-02-22T00:08:55;81.97;;;32.60;;
3293;SDS011;1659;51.470;6.770;2023-02-22T00:11:23;80.20;;;30.33;;
3293;SDS011;1659;51.470;6.770;2023-02-22T00:13:51;73.33;;;31.30;;
3293;SDS011;1659;51.470;6.770;2023-02-22T00:16:21;71.23;;;28.43;;
3293;SDS011;1659;51.470;6.770;2023-02-22T00:18:49;66.37;;;28.13;;
3293;SDS011;1659;51.470;6.770;2023-02-22T00:21:16;77.20;;;30.63;;
3293;SDS011;1659;51.470;6.770;2023-02-22T00:23:43;84.60;;;30.10;;
3293;SDS011;1659;51.470;6.770;2023-02-22T00:26:12;65.47;;;28.07;;
3293;SDS011;1659;51.470;6.770;2023-02-22T00:28:43;84.20;;;30.70;;
3293;SDS011;1659;51.470;6.770;2023-02-22T00:31:11;65.37;;;27.73;;
3293;SDS011;1659;51.470;6.770;2023-02-22T00:33:38;77.53;;;30.67;;
3293;SDS011;1659;51.470;6.770;2023-02-22T00:36:05;73.13;;;30.13;;
3293;SDS011;1659;51.470;6.770;2023-02-22T00:38:33;75.00;;;30.57;;
3293;SDS011;1659;51.470;6.770;2023-02-22T00:40:59;78.73;;;31.93;;
3293;SDS011;1659;51.470;6.770;2023-02-22T00:43:26;74.07;;;29.97;;
3293;SDS011;1659;51.470;6.770;2023-02-22T00:45:54;79.17;;;31.67;;
3293;SDS011;1659;51.470;6.770;2023-02-22T00:48:21;78.57;;;31.10;;
3293;SDS011;1659;51.470;6.770;2023-02-22T00:50:48;84.40;;;32.50;;
3293;SDS011;1659;51.470;6.770;2023-02-22T00:53:14;92.23;;;31.93;;
3293;SDS011;1659;51.470;6.770;2023-02-22T00:55:41;86.70;;;33.10;;
3293;SDS011;1659;51.470;6.770;2023-02-22T00:58:07;91.17;;;31.90;;
3293;SDS011;1659;51.470;6.770;2023-02-22T01:00:35;87.23;;;31.97;;
3293;SDS011;1659;51.470;6.770;2023-02-22T01:03:05;94.87;;;34.70;;
3293;SDS011;1659;51.470;6.770;2023-02-22T01:05:32;86.13;;;32.70;;
3293;SDS011;1659;51.470;6.770;2023-02-22T01:08:00;89.17;;;32.70;;
3293;SDS011;1659;51.470;6.770;2023-02-22T01:10:28;80.10;;;32.87;;
3293;SDS011;1659;51.470;6.770;2023-02-22T01:12:56;72.43;;;30.17;;
3293;SDS011;1659;51.470;6.770;2023-02-22T01:15:25;88.40;;;31.13;;
3293;SDS011;1659;51.470;6.770;2023-02-22T01:17:55;93.10;;;31.10;;
3293;SDS011;1659;51.470;6.770;2023-02-22T01:20:25;78.80;;;30.83;;
3293;SDS011;1659;51.470;6.770;2023-02-22T01:22:53;101.57;;;31.60;;
3293;SDS011;1659;51.470;6.770;2023-02-22T01:25:23;93.87;;;29.50;;
3293;SDS011;1659;51.470;6.770;2023-02-22T01:27:51;84.63;;;31.47;;
3293;SDS011;1659;51.470;6.770;2023-02-22T01:30:19;93.63;;;33.00;;
3293;SDS011;1659;51.470;6.770;2023-02-22T01:32:47;89.13;;;33.30;;
3293;SDS011;1659;51.470;6.770;2023-02-22T01:35:15;82.60;;;30.53;;
3293;SDS011;1659;51.470;6.770;2023-02-22T01:37:45;89.33;;;33.23;;
3293;SDS011;1659;51.470;6.770;2023-02-22T01:40:15;82.30;;;30.50;;
3293;SDS011;1659;51.470;6.770;2023-02-22T01:42:46;83.20;;;29.77;;
3293;SDS011;1659;51.470;6.770;2023-02-22T01:48:10;98.10;;;34.70;;
3293;SDS011;1659;51.470;6.770;2023-02-22T01:50:41;91.63;;;32.67;;
3293;SDS011;1659;51.470;6.770;2023-02-22T01:53:14;96.90;;;32.83;;
3293;SDS011;1659;51.470;6.770;2023-02-22T01:55:42;91.30;;;32.73;;
3293;SDS011;1659;51.470;6.770;2023-02-22T01:58:11;90.70;;;32.83;;
3293;SDS011;1659;51.470;6.770;2023-02-22T02:00:40;82.37;;;31.73;;
3293;SDS011;1659;51.470;6.770;2023-02-22T02:03:10;89.17;;;30.57;;
3293;SDS011;1659;51.470;6.770;2023-02-22T02:05:41;91.07;;;32.30;;
3293;SDS011;1659;51.470;6.770;2023-02-22T02:08:11;90.87;;;33.13;;
3293;SDS011;1659;51.470;6.770;2023-02-22T02:10:46;104.30;;;35.80;;
3293;SDS011;1659;51.470;6.770;2023-02-22T02:13:14;93.83;;;35.63;;
3293;SDS011;1659;51.470;6.770;2023-02-22T02:15:41;111.23;;;34.27;;
3293;SDS011;1659;51.470;6.770;2023-02-22T02:18:08;88.33;;;33.23;;
3293;SDS011;1659;51.470;6.770;2023-02-22T02:20:37;89.77;;;31.73;;
3293;SDS011;1659;51.470;6.770;2023-02-22T02:23:15;79.10;;;30.50;;
3293;SDS011;1659;51.470;6.770;2023-02-22T02:26:05;88.80;;;30.70;;
3293;SDS011;1659;51.470;6.770;2023-02-22T02:28:54;87.07;;;30.17;;
3293;SDS011;1659;51.470;6.770;2023-02-22T02:34:30;72.27;;;26.87;;
3293;SDS011;1659;51.470;6.770;2023-02-22T02:37:00;77.47;;;28.43;;
3293;SDS011;1659;51.470;6.770;2023-02-22T02:39:34;108.07;;;28.27;;
3293;SDS011;1659;51.470;6.770;2023-02-22T02:42:06;70.57;;;24.50;;
3293;SDS011;1659;51.470;6.770;2023-02-22T02:44:38;70.37;;;24.57;;
3293;SDS011;1659;51.470;6.770;2023-02-22T02:47:11;58.00;;;22.40;;
3293;SDS011;1659;51.470;6.770;2023-02-22T02:49:43;67.30;;;28.03;;
3293;SDS011;1659;51.470;6.770;2023-02-22T02:52:13;72.50;;;21.43;;
3293;SDS011;1659;51.470;6.770;2023-02-22T02:54:45;65.73;;;22.60;;
3293;SDS011;1659;51.470;6.770;2023-02-22T02:57:13;58.13;;;20.27;;
3293;SDS011;1659;51.470;6.770;2023-02-22T02:59:40;70.13;;;21.80;;
3293;SDS011;1659;51.470;6.770;2023-02-22T03:02:13;62.57;;;22.03;;
3293;SDS011;1659;51.470;6.770;2023-02-22T03:05:02;58.60;;;22.50;;
3293;SDS011;1659;51.470;6.770;2023-02-22T03:07:44;68.77;;;22.27;;
3293;SDS011;1659;51.470;6.770;2023-02-22T03:10:27;56.13;;;21.53;;
3293;SDS011;1659;51.470;6.770;2023-02-22T03:13:06;66.10;;;22.37;;
3293;SDS011;1659;51.470;6.770;2023-02-22T03:15:42;66.13;;;22.30;;
3293;SDS011;1659;51.470;6.770;2023-02-22T03:18:18;53.90;;;22.53;;
3293;SDS011;1659;51.470;6.770;2023-02-22T03:20:54;66.33;;;24.57;;
3293;SDS011;1659;51.470;6.770;2023-02-22T03:23:27;63.27;;;24.53;;
3293;SDS011;1659;51.470;6.770;2023-02-22T03:25:58;78.33;;;29.10;;
3293;SDS011;1659;51.470;6.770;2023-02-22T03:28:29;96.77;;;28.03;;
3293;SDS011;1659;51.470;6.770;2023-02-22T03:30:58;115.40;;;29.23;;
3293;SDS011;1659;51.470;6.770;2023-02-22T03:33:30;118.60;;;33.23;;
3293;SDS011;1659;51.470;6.770;2023-02-22T03:36:02;136.83;;;32.60;;
3293;SDS011;1659;51.470;6.770;2023-02-22T03:38:35;107.10;;;29.43;;
3293;SDS011;1659;51.470;6.770;2023-02-22T03:41:05;80.50;;;27.43;;
3293;SDS011;1659;51.470;6.770;2023-02-22T03:43:35;84.70;;;26.80;;
3293;SDS011;1659;51.470;6.770;2023-02-22T03:46:05;95.80;;;29.07;;
3293;SDS011;1659;51.470;6.770;2023-02-22T03:48:37;90.23;;;27.40;;
3293;SDS011;1659;51.470;6.770;2023-02-22T03:51:09;88.97;;;27.23;;
3293;SDS011;1659;51.470;6.770;2023-02-22T03:53:39;94.07;;;27.17;;
3293;SDS011;1659;51.470;6.770;2023-02-22T03:56:07;95.77;;;29.10;;
3293;SDS011;1659;51.470;6.770;2023-02-22T03:58:36;77.57;;;26.67;;
3293;SDS011;1659;51.470;6.770;2023-02-22T04:01:07;104.53;;;28.83;;
3293;SDS011;1659;51.470;6.770;2023-02-22T04:03:35;82.83;;;26.57;;
3293;SDS011;1659;51.470;6.770;2023-02-22T04:06:02;83.17;;;25.50;;
3293;SDS011;1659;51.470;6.770;2023-02-22T04:08:29;92.80;;;28.13;;
3293;SDS011;1659;51.470;6.770;2023-02-22T04:10:55;88.83;;;28.20;;
3293;SDS011;1659;51.470;6.770;2023-02-22T04:13:22;96.90;;;26.67;;
3293;SDS011;1659;51.470;6.770;2023-02-22T04:15:49;90.07;;;24.40;;
3293;SDS011;1659;51.470;6.770;2023-02-22T04:18:15;86.43;;;26.60;;
3293;SDS011;1659;51.470;6.770;2023-02-22T04:20:43;87.37;;;21.57;;
3293;SDS011;1659;51.470;6.770;2023-02-22T04:23:10;126.83;;;25.90;;
3293;SDS011;1659;51.470;6.770;2023-02-22T04:25:37;101.97;;;27.20;;
3293;SDS011;1659;51.470;6.770;2023-02-22T04:28:12;98.03;;;25.63;;
3293;SDS011;1659;51.470;6.770;2023-02-22T04:30:39;92.33;;;25.10;;
3293;SDS011;1659;51.470;6.770;2023-02-22T04:33:05;105.40;;;23.87;;
3293;SDS011;1659;51.470;6.770;2023-02-22T04:35:32;105.13;;;25.17;;
3293;SDS011;1659;51.470;6.770;2023-02-22T04:38:00;91.17;;;24.43;;
3293;SDS011;1659;51.470;6.770;2023-02-22T04:40:28;89.20;;;25.37;;
3293;SDS011;1659;51.470;6.770;2023-02-22T04:42:55;97.60;;;24.27;;
3293;SDS011;1659;51.470;6.770;2023-02-22T04:45:24;97.53;;;23.27;;
3293;SDS011;1659;51.470;6.770;2023-02-22T04:47:51;81.80;;;21.97;;
3293;SDS011;1659;51.470;6.770;2023-02-22T04:50:17;118.30;;;25.00;;
3293;SDS011;1659;51.470;6.770;2023-02-22T04:52:44;74.50;;;25.77;;
3293;SDS011;1659;51.470;6.770;2023-02-22T04:55:12;87.50;;;25.97;;
3293;SDS011;1659;51.470;6.770;2023-02-22T04:57:40;76.47;;;23.63;;
3293;SDS011;1659;51.470;6.770;2023-02-22T05:00:08;89.27;;;23.90;;
3293;SDS011;1659;51.470;6.770;2023-02-22T05:02:36;94.10;;;25.47;;
3293;SDS011;1659;51.470;6.770;2023-02-22T05:05:03;110.27;;;24.90;;
3293;SDS011;1659;51.470;6.770;2023-02-22T05:07:30;156.63;;;25.27;;
3293;SDS011;1659;51.470;6.770;2023-02-22T05:09:57;106.80;;;25.80;;
3293;SDS011;1659;51.470;6.770;2023-02-22T05:12:27;134.20;;;25.17;;
3293;SDS011;1659;51.470;6.770;2023-02-22T05:14:53;123.83;;;26.90;;
3293;SDS011;1659;51.470;6.770;2023-02-22T05:17:20;137.40;;;31.80;;
3293;SDS011;1659;51.470;6.770;2023-02-22T05:19:46;115.00;;;28.40;;
3293;SDS011;1659;51.470;6.770;2023-02-22T05:22:13;110.67;;;29.10;;
3293;SDS011;1659;51.470;6.770;2023-02-22T05:24:39;104.97;;;28.90;;
3293;SDS011;1659;51.470;6.770;2023-02-22T05:27:07;100.53;;;28.03;;
3293;SDS011;1659;51.470;6.770;2023-02-22T05:29:37;98.53;;;26.50;;
3293;SDS011;1659;51.470;6.770;2023-02-22T05:32:04;124.83;;;32.43;;
3293;SDS011;1659;51.470;6.770;2023-02-22T05:34:31;92.73;;;28.57;;
3293;SDS011;1659;51.470;6.770;2023-02-22T05:36:57;108.63;;;26.93;;
3293;SDS011;1659;51.470;6.770;2023-02-22T05:39:24;121.70;;;28.93;;
3293;SDS011;1659;51.470;6.770;2023-02-22T05:41:51;110.07;;;31.00;;
3293;SDS011;1659;51.470;6.770;2023-02-22T05:44:17;84.93;;;29.27;;
3293;SDS011;1659;51.470;6.770;2023-02-22T05:46:45;121.63;;;31.47;;
3293;SDS011;1659;51.470;6.770;2023-02-22T05:49:12;97.43;;;29.73;;
3293;SDS011;1659;51.470;6.770;2023-02-22T05:51:39;117.17;;;32.87;;
3293;SDS011;1659;51.470;6.770;2023-02-22T05:54:05;105.90;;;31.20;;
3293;SDS011;1659;51.470;6.770;2023-02-22T05:56:32;106.13;;;30.30;;
3293;SDS011;1659;51.470;6.770;2023-02-22T05:59:00;101.33;;;31.70;;
3293;SDS011;1659;51.470;6.770;2023-02-22T06:01:27;102.87;;;33.90;;
3293;SDS011;1659;51.470;6.770;2023-02-22T06:04:00;107.77;;;31.80;;
3293;SDS011;1659;51.470;6.770;2023-02-22T06:06:27;148.13;;;32.00;;
3293;SDS011;1659;51.470;6.770;2023-02-22T06:08:53;86.10;;;30.63;;
3293;SDS011;1659;51.470;6.770;2023-02-22T06:11:20;118.53;;;29.97;;
3293;SDS011;1659;51.470;6.770;2023-02-22T06:13:50;118.17;;;32.00;;
3293;SDS011;1659;51.470;6.770;2023-02-22T06:16:17;90.10;;;29.67;;
3293;SDS011;1659;51.470;6.770;2023-02-22T06:18:45;103.70;;;28.50;;
3293;SDS011;1659;51.470;6.770;2023-02-22T06:21:13;89.47;;;28.97;;
3293;SDS011;1659;51.470;6.770;2023-02-22T06:23:39;82.07;;;28.70;;
3293;SDS011;1659;51.470;6.770;2023-02-22T06:26:06;118.90;;;34.60;;
3293;SDS011;1659;51.470;6.770;2023-02-22T06:28:32;91.57;;;31.23;;
3293;SDS011;1659;51.470;6.770;2023-02-22T06:30:59;95.57;;;32.07;;
3293;SDS011;1659;51.470;6.770;2023-02-22T06:33:25;84.07;;;29.83;;
3293;SDS011;1659;51.470;6.770;2023-02-22T06:35:52;114.80;;;31.43;;
3293;SDS011;1659;51.470;6.770;2023-02-22T06:38:21;86.87;;;30.17;;
3293;SDS011;1659;51.470;6.770;2023-02-22T06:40:48;85.70;;;29.23;;
3293;SDS011;1659;51.470;6.770;2023-02-22T06:43:15;110.83;;;31.93;;
3293;SDS011;1659;51.470;6.770;2023-02-22T06:45:42;98.53;;;29.97;;
3293;SDS011;1659;51.470;6.770;2023-02-22T06:48:08;97.17;;;29.20;;
3293;SDS011;1659;51.470;6.770;2023-02-22T06:50:35;75.10;;;28.73;;
3293;SDS011;1659;51.470;6.770;2023-02-22T06:53:02;88.87;;;30.53;;
3293;SDS011;1659;51.470;6.770;2023-02-22T06:55:31;121.53;;;31.83;;
3293;SDS011;1659;51.470;6.770;2023-02-22T06:57:59;84.73;;;30.00;;
3293;SDS011;1659;51.470;6.770;2023-02-22T07:00:27;88.17;;;29.30;;
3293;SDS011;1659;51.470;6.770;2023-02-22T07:02:56;76.90;;;29.17;;
3293;SDS011;1659;51.470;6.770;2023-02-22T07:05:23;81.83;;;28.50;;
3293;SDS011;1659;51.470;6.770;2023-02-22T07:07:51;80.40;;;29.50;;
3293;SDS011;1659;51.470;6.770;2023-02-22T07:10:20;78.00;;;28.60;;
3293;SDS011;1659;51.470;6.770;2023-02-22T07:12:50;82.27;;;28.60;;
3293;SDS011;1659;51.470;6.770;2023-02-22T07:15:17;88.67;;;30.87;;
3293;SDS011;1659;51.470;6.770;2023-02-22T07:17:46;82.30;;;31.13;;
3293;SDS011;1659;51.470;6.770;2023-02-22T07:20:13;84.10;;;30.87;;
3293;SDS011;1659;51.470;6.770;2023-02-22T07:22:39;92.77;;;31.07;;
3293;SDS011;1659;51.470;6.770;2023-02-22T07:25:06;89.43;;;29.10;;
3293;SDS011;1659;51.470;6.770;2023-02-22T07:27:35;79.70;;;29.87;;
3293;SDS011;1659;51.470;6.770;2023-02-22T07:30:04;82.53;;;29.70;;
3293;SDS011;1659;51.470;6.770;2023-02-22T07:32:35;81.63;;;29.60;;
3293;SDS011;1659;51.470;6.770;2023-02-22T07:35:02;68.60;;;29.33;;
3293;SDS011;1659;51.470;6.770;2023-02-22T07:37:28;69.53;;;27.60;;
3293;SDS011;1659;51.470;6.770;2023-02-22T07:39:55;70.93;;;29.30;;
3293;SDS011;1659;51.470;6.770;2023-02-22T07:42:22;80.97;;;29.87;;
3293;SDS011;1659;51.470;6.770;2023-02-22T07:44:48;65.00;;;27.27;;
3293;SDS011;1659;51.470;6.770;2023-02-22T07:47:16;59.67;;;26.50;;
3293;SDS011;1659;51.470;6.770;2023-02-22T07:49:44;72.80;;;30.40;;
3293;SDS011;1659;51.470;6.770;2023-02-22T07:52:11;67.00;;;29.37;;
3293;SDS011;1659;51.470;6.770;2023-02-22T07:54:38;63.53;;;28.40;;
3293;SDS011;1659;51.470;6.770;2023-02-22T07:57:05;60.93;;;28.50;;
3293;SDS011;1659;51.470;6.770;2023-02-22T07:59:31;63.93;;;28.50;;
3293;SDS011;1659;51.470;6.770;2023-02-22T08:01:58;59.80;;;28.47;;
3293;SDS011;1659;51.470;6.770;2023-02-22T08:04:26;70.30;;;30.33;;
3293;SDS011;1659;51.470;6.770;2023-02-22T08:06:52;61.77;;;27.50;;
3293;SDS011;1659;51.470;6.770;2023-02-22T08:09:19;59.60;;;29.00;;
3293;SDS011;1659;51.470;6.770;2023-02-22T08:11:47;53.67;;;26.80;;
3293;SDS011;1659;51.470;6.770;2023-02-22T08:14:14;62.23;;;27.47;;
3293;SDS011;1659;51.470;6.770;2023-02-22T08:16:41;60.67;;;27.20;;
3293;SDS011;1659;51.470;6.770;2023-02-22T08:19:07;55.80;;;27.73;;
3293;SDS011;1659;51.470;6.770;2023-02-22T08:21:35;57.20;;;26.90;;
3293;SDS011;1659;51.470;6.770;2023-02-22T08:24:02;56.70;;;27.20;;
3293;SDS011;1659;51.470;6.770;2023-02-22T08:26:29;57.80;;;28.00;;
3293;SDS011;1659;51.470;6.770;2023-02-22T08:28:55;51.20;;;24.70;;
3293;SDS011;1659;51.470;6.770;2023-02-22T08:31:22;45.10;;;23.20;;
3293;SDS011;1659;51.470;6.770;2023-02-22T08:33:49;47.77;;;24.30;;
3293;SDS011;1659;51.470;6.770;2023-02-22T08:36:15;51.13;;;23.67;;
3293;SDS011;1659;51.470;6.770;2023-02-22T08:38:43;49.27;;;24.53;;
3293;SDS011;1659;51.470;6.770;2023-02-22T08:41:10;44.80;;;24.40;;
3293;SDS011;1659;51.470;6.770;2023-02-22T08:43:37;46.67;;;22.43;;
3293;SDS011;1659;51.470;6.770;2023-02-22T08:46:03;44.00;;;23.40;;
3293;SDS011;1659;51.470;6.770;2023-02-22T08:48:30;40.13;;;21.57;;
3293;SDS011;1659;51.470;6.770;2023-02-22T08:50:56;46.50;;;23.50;;
3293;SDS011;1659;51.470;6.770;2023-02-22T08:53:23;45.73;;;22.53;;
3293;SDS011;1659;51.470;6.770;2023-02-22T08:55:51;42.73;;;23.70;;
3293;SDS011;1659;51.470;6.770;2023-02-22T08:58:18;43.23;;;21.40;;
3293;SDS011;1659;51.470;6.770;2023-02-22T09:00:45;38.73;;;21.33;;
3293;SDS011;1659;51.470;6.770;2023-02-22T09:03:12;37.77;;;21.47;;
3293;SDS011;1659;51.470;6.770;2023-02-22T09:05:40;37.23;;;21.57;;
3293;SDS011;1659;51.470;6.770;2023-02-22T09:08:06;38.00;;;20.70;;
3293;SDS011;1659;51.470;6.770;2023-02-22T09:10:33;41.83;;;21.00;;
3293;SDS011;1659;51.470;6.770;2023-02-22T09:13:02;41.63;;;21.43;;
3293;SDS011;1659;51.470;6.770;2023-02-22T09:15:29;36.90;;;19.37;;
3293;SDS011;1659;51.470;6.770;2023-02-22T09:17:56;32.47;;;18.80;;
3293;SDS011;1659;51.470;6.770;2023-02-22T09:20:23;35.47;;;19.43;;
3293;SDS011;1659;51.470;6.770;2023-02-22T09:22:51;32.47;;;19.17;;
3293;SDS011;1659;51.470;6.770;2023-02-22T09:25:18;31.00;;;19.67;;
3293;SDS011;1659;51.470;6.770;2023-02-22T09:27:46;34.73;;;19.53;;
3293;SDS011;1659;51.470;6.770;2023-02-22T09:30:16;27.60;;;16.90;;
3293;SDS011;1659;51.470;6.770;2023-02-22T09:32:48;30.97;;;18.03;;
3293;SDS011;1659;51.470;6.770;2023-02-22T09:35:16;32.17;;;18.63;;
3293;SDS011;1659;51.470;6.770;2023-02-22T09:37:43;36.30;;;18.07;;
3293;SDS011;1659;51.470;6.770;2023-02-22T09:40:13;34.07;;;19.93;;
3293;SDS011;1659;51.470;6.770;2023-02-22T09:42:50;36.80;;;19.07;;
3293;SDS011;1659;51.470;6.770;2023-02-22T09:45:28;47.30;;;21.50;;
3293;SDS011;1659;51.470;6.770;2023-02-22T09:48:01;42.23;;;21.80;;
3293;SDS011;1659;51.470;6.770;2023-02-22T09:50:32;31.03;;;17.67;;
3293;SDS011;1659;51.470;6.770;2023-02-22T09:53:02;32.70;;;19.23;;
3293;SDS011;1659;51.470;6.770;2023-02-22T09:55:32;31.30;;;18.77;;
3293;SDS011;1659;51.470;6.770;2023-02-22T09:58:03;33.17;;;18.80;;
3293;SDS011;1659;51.470;6.770;2023-02-22T10:00:36;35.23;;;19.90;;
3293;SDS011;1659;51.470;6.770;2023-02-22T10:03:11;30.73;;;18.80;;
3293;SDS011;1659;51.470;6.770;2023-02-22T10:05:48;32.80;;;19.50;;
3293;SDS011;1659;51.470;6.770;2023-02-22T10:08:28;41.17;;;20.13;;
3293;SDS011;1659;51.470;6.770;2023-02-22T10:11:00;37.10;;;18.30;;
3293;SDS011;1659;51.470;6.770;2023-02-22T10:13:36;35.33;;;18.77;;
3293;SDS011;1659;51.470;6.770;2023-02-22T10:16:11;35.33;;;20.27;;
3293;SDS011;1659;51.470;6.770;2023-02-22T10:18:52;41.30;;;18.97;;
3293;SDS011;1659;51.470;6.770;2023-02-22T10:21:45;33.83;;;19.80;;
3293;SDS011;1659;51.470;6.770;2023-02-22T10:24:26;35.63;;;19.57;;
3293;SDS011;1659;51.470;6.770;2023-02-22T10:27:04;27.47;;;18.90;;
3293;SDS011;1659;51.470;6.770;2023-02-22T10:29:34;34.60;;;20.00;;
3293;SDS011;1659;51.470;6.770;2023-02-22T10:32:08;33.13;;;19.30;;
3293;SDS011;1659;51.470;6.770;2023-02-22T10:34:40;32.43;;;19.57;;
3293;SDS011;1659;51.470;6.770;2023-02-22T10:37:16;25.83;;;16.10;;
3293;SDS011;1659;51.470;6.770;2023-02-22T10:39:49;34.20;;;16.23;;
3293;SDS011;1659;51.470;6.770;2023-02-22T10:42:19;24.83;;;14.40;;
3293;SDS011;1659;51.470;6.770;2023-02-22T10:44:50;29.53;;;15.57;;
3293;SDS011;1659;51.470;6.770;2023-02-22T10:47:18;28.77;;;15.50;;
3293;SDS011;1659;51.470;6.770;2023-02-22T10:49:47;27.63;;;15.30;;
3293;SDS011;1659;51.470;6.770;2023-02-22T10:52:17;31.63;;;14.10;;
3293;SDS011;1659;51.470;6.770;2023-02-22T10:54:50;26.33;;;15.50;;
3293;SDS011;1659;51.470;6.770;2023-02-22T10:57:19;21.60;;;13.80;;
3293;SDS011;1659;51.470;6.770;2023-02-22T10:59:47;28.20;;;15.13;;
3293;SDS011;1659;51.470;6.770;2023-02-22T11:02:17;24.43;;;14.37;;
3293;SDS011;1659;51.470;6.770;2023-02-22T11:04:47;24.93;;;15.17;;
3293;SDS011;1659;51.470;6.770;2023-02-22T11:07:17;27.97;;;15.50;;
3293;SDS011;1659;51.470;6.770;2023-02-22T11:09:47;21.77;;;14.50;;
3293;SDS011;1659;51.470;6.770;2023-02-22T11:12:17;24.23;;;14.37;;
3293;SDS011;1659;51.470;6.770;2023-02-22T11:14:45;22.53;;;14.77;;
3293;SDS011;1659;51.470;6.770;2023-02-22T11:17:16;25.50;;;14.93;;
3293;SDS011;1659;51.470;6.770;2023-02-22T11:19:49;25.50;;;14.20;;
3293;SDS011;1659;51.470;6.770;2023-02-22T11:22:20;20.50;;;13.30;;
3293;SDS011;1659;51.470;6.770;2023-02-22T11:24:51;20.67;;;12.80;;
3293;SDS011;1659;51.470;6.770;2023-02-22T11:27:23;21.67;;;11.67;;
3293;SDS011;1659;51.470;6.770;2023-02-22T11:29:55;17.73;;;10.27;;
3293;SDS011;1659;51.470;6.770;2023-02-22T11:32:34;16.07;;;10.40;;
3293;SDS011;1659;51.470;6.770;2023-02-22T11:35:16;13.27;;;9.10;;
3293;SDS011;1659;51.470;6.770;2023-02-22T11:37:44;16.20;;;8.90;;
3293;SDS011;1659;51.470;6.770;2023-02-22T11:40:15;14.10;;;9.10;;
3293;SDS011;1659;51.470;6.770;2023-02-22T11:42:46;13.97;;;9.53;;
3293;SDS011;1659;51.470;6.770;2023-02-22T11:45:14;17.93;;;9.30;;
3293;SDS011;1659;51.470;6.770;2023-02-22T11:47:50;15.47;;;9.03;;
3293;SDS011;1659;51.470;6.770;2023-02-22T11:50:23;17.40;;;9.70;;
3293;SDS011;1659;51.470;6.770;2023-02-22T11:52:55;16.47;;;9.60;;
3293;SDS011;1659;51.470;6.770;2023-02-22T11:55:31;23.33;;;11.30;;
3293;SDS011;1659;51.470;6.770;2023-02-22T11:58:03;17.00;;;9.80;;
3293;SDS011;1659;51.470;6.770;2023-02-22T12:00:44;14.47;;;10.00;;
3293;SDS011;1659;51.470;6.770;2023-02-22T12:03:31;18.40;;;10.17;;
3293;SDS011;1659;51.470;6.770;2023-02-22T12:06:25;16.70;;;9.80;;
3293;SDS011;1659;51.470;6.770;2023-02-22T12:09:07;16.33;;;9.70;;
3293;SDS011;1659;51.470;6.770;2023-02-22T12:11:42;15.90;;;10.47;;
3293;SDS011;1659;51.470;6.770;2023-02-22T12:14:20;15.27;;;10.90;;
3293;SDS011;1659;51.470;6.770;2023-02-22T12:19:41;12.87;;;10.10;;
3293;SDS011;1659;51.470;6.770;2023-02-22T12:22:14;14.27;;;9.90;;
3293;SDS011;1659;51.470;6.770;2023-02-22T12:24:46;17.83;;;9.80;;
3293;SDS011;1659;51.470;6.770;2023-02-22T12:27:17;16.50;;;10.60;;
3293;SDS011;1659;51.470;6.770;2023-02-22T12:29:48;16.30;;;10.37;;
3293;SDS011;1659;51.470;6.770;2023-02-22T12:32:23;18.37;;;12.30;;
3293;SDS011;1659;51.470;6.770;2023-02-22T12:35:00;17.93;;;10.83;;
3293;SDS011;1659;51.470;6.770;2023-02-22T12:37:32;19.03;;;12.10;;
3293;SDS011;1659;51.470;6.770;2023-02-22T12:40:15;20.43;;;11.30;;
3293;SDS011;1659;51.470;6.770;2023-02-22T12:42:49;18.83;;;11.37;;
3293;SDS011;1659;51.470;6.770;2023-02-22T12:45:24;16.60;;;11.20;;
3293;SDS011;1659;51.470;6.770;2023-02-22T12:47:59;16.43;;;11.33;;
3293;SDS011;1659;51.470;6.770;2023-02-22T12:50:39;21.63;;;11.67;;
3293;SDS011;1659;51.470;6.770;2023-02-22T12:53:11;17.07;;;11.70;;
3293;SDS011;1659;51.470;6.770;2023-02-22T12:55:44;19.40;;;11.20;;
3293;SDS011;1659;51.470;6.770;2023-02-22T12:58:17;17.70;;;11.47;;
3293;SDS011;1659;51.470;6.770;2023-02-22T13:00:50;24.90;;;12.53;;
3293;SDS011;1659;51.470;6.770;2023-02-22T13:03:26;20.70;;;11.73;;
3293;SDS011;1659;51.470;6.770;2023-02-22T13:06:01;19.77;;;12.83;;
3293;SDS011;1659;51.470;6.770;2023-02-22T13:08:39;20.87;;;11.40;;
3293;SDS011;1659;51.470;6.770;2023-02-22T13:11:16;18.80;;;11.67;;
3293;SDS011;1659;51.470;6.770;2023-02-22T13:13:50;21.30;;;11.00;;
3293;SDS011;1659;51.470;6.770;2023-02-22T13:16:33;18.20;;;12.90;;
3293;SDS011;1659;51.470;6.770;2023-02-22T13:19:07;18.63;;;11.77;;
3293;SDS011;1659;51.470;6.770;2023-02-22T13:21:48;20.87;;;12.57;;
3293;SDS011;1659;51.470;6.770;2023-02-22T13:24:23;23.00;;;13.07;;
3293;SDS011;1659;51.470;6.770;2023-02-22T13:26:55;24.90;;;12.57;;
3293;SDS011;1659;51.470;6.770;2023-02-22T13:29:26;19.80;;;12.03;;
3293;SDS011;1659;51.470;6.770;2023-02-22T13:32:00;20.20;;;12.10;;
3293;SDS011;1659;51.470;6.770;2023-02-22T13:34:45;19.67;;;13.50;;
3293;SDS011;1659;51.470;6.770;2023-02-22T13:37:27;21.33;;;14.00;;
3293;SDS011;1659;51.470;6.770;2023-02-22T13:43:04;24.33;;;13.73;;
3293;SDS011;1659;51.470;6.770;2023-02-22T13:45:51;26.67;;;15.10;;
3293;SDS011;1659;51.470;6.770;2023-02-22T13:48:34;25.53;;;14.87;;
3293;SDS011;1659;51.470;6.770;2023-02-22T13:51:12;27.13;;;14.07;;
3293;SDS011;1659;51.470;6.770;2023-02-22T13:53:49;24.30;;;15.40;;
3293;SDS011;1659;51.470;6.770;2023-02-22T13:56:20;26.07;;;15.63;;
3293;SDS011;1659;51.470;6.770;2023-02-22T13:58:50;26.10;;;14.43;;
3293;SDS011;1659;51.470;6.770;2023-02-22T14:04:18;34.50;;;15.23;;
3293;SDS011;1659;51.470;6.770;2023-02-22T14:07:01;24.00;;;16.53;;
3293;SDS011;1659;51.470;6.770;2023-02-22T14:09:43;24.20;;;16.37;;
3293;SDS011;1659;51.470;6.770;2023-02-22T14:15:13;29.80;;;16.70;;
3293;SDS011;1659;51.470;6.770;2023-02-22T14:17:41;31.27;;;18.07;;
3293;SDS011;1659;51.470;6.770;2023-02-22T14:20:23;32.97;;;17.83;;
3293;SDS011;1659;51.470;6.770;2023-02-22T14:22:56;26.37;;;17.10;;
3293;SDS011;1659;51.470;6.770;2023-02-22T14:25:45;24.20;;;14.83;;
3293;SDS011;1659;51.470;6.770;2023-02-22T14:31:06;22.63;;;14.30;;
3293;SDS011;1659;51.470;6.770;2023-02-22T14:33:50;23.43;;;14.40;;
3293;SDS011;1659;51.470;6.770;2023-02-22T14:36:19;24.73;;;14.93;;
3293;SDS011;1659;51.470;6.770;2023-02-22T14:38:47;20.10;;;13.67;;
3293;SDS011;1659;51.470;6.770;2023-02-22T14:41:19;22.30;;;14.10;;
3293;SDS011;1659;51.470;6.770;2023-02-22T14:43:48;27.83;;;15.10;;
3293;SDS011;1659;51.470;6.770;2023-02-22T14:46:18;25.90;;;15.60;;
3293;SDS011;1659;51.470;6.770;2023-02-22T14:48:48;19.23;;;13.70;;
3293;SDS011;1659;51.470;6.770;2023-02-22T14:51:23;28.80;;;14.77;;
3293;SDS011;1659;51.470;6.770;2023-02-22T14:53:53;30.00;;;14.53;;
3293;SDS011;1659;51.470;6.770;2023-02-22T14:56:28;21.90;;;13.63;;
3293;SDS011;1659;51.470;6.770;2023-02-22T14:59:04;23.90;;;14.10;;
3293;SDS011;1659;51.470;6.770;2023-02-22T15:01:40;21.77;;;14.20;;
3293;SDS011;1659;51.470;6.770;2023-02-22T15:04:17;21.47;;;14.00;;
3293;SDS011;1659;51.470;6.770;2023-02-22T15:06:45;22.83;;;14.63;;
3293;SDS011;1659;51.470;6.770;2023-02-22T15:09:12;20.53;;;14.80;;
3293;SDS011;1659;51.470;6.770;2023-02-22T15:11:49;28.60;;;14.80;;
3293;SDS011;1659;51.470;6.770;2023-02-22T15:14:18;21.90;;;14.63;;
3293;SDS011;1659;51.470;6.770;2023-02-22T15:16:46;34.20;;;15.27;;
3293;SDS011;1659;51.470;6.770;2023-02-22T15:19:16;27.80;;;14.53;;
3293;SDS011;1659;51.470;6.770;2023-02-22T15:21:49;29.73;;;14.67;;
3293;SDS011;1659;51.470;6.770;2023-02-22T15:24:18;25.60;;;14.97;;
3293;SDS011;1659;51.470;6.770;2023-02-22T15:26:49;23.60;;;15.07;;